sensor_id;sensor_type;location;lat;lon;timestamp;temperature;humidity
4406;DHT22;2216;53.806;11.598;2023-10-09T00:00:14;10.50;76.60
4406;DHT22;2216;53.806;11.598;2023-10-09T00:02:59;10.50;76.60
4406;DHT22;2216;53.806;11.598;2023-10-09T00:05:33;10.40;76.50
4406;DHT22;2216;53.806;11.598;2023-10-09T00:08:17;10.40;76.50
4406;DHT22;2216;53.806;11.598;2023-10-09T00:10:50;10.40;76.50
4406;DHT22;2216;53.806;11.598;2023-10-09T00:13:26;10.40;76.50
4406;DHT22;2216;53.806;11.598;2023-10-09T00:16:04;10.40;76.50
4406;DHT22;2216;53.806;11.598;2023-10-09T00:18:40;10.30;76.40
4406;DHT22;2216;53.806;11.598;2023-10-09T00:21:16;10.30;76.50
4406;DHT22;2216;53.806;11.598;2023-10-09T00:23:45;10.30;76.50
4406;DHT22;2216;53.806;11.598;2023-10-09T00:26:18;10.30;76.70
4406;DHT22;2216;53.806;11.598;2023-10-09T00:28:47;10.40;76.80
4406;DHT22;2216;53.806;11.598;2023-10-09T00:31:19;10.40;76.90
4406;DHT22;2216;53.806;11.598;2023-10-09T00:33:58;10.40;76.90
4406;DHT22;2216;53.806;11.598;2023-10-09T00:36:30;10.40;76.90
4406;DHT22;2216;53.806;11.598;2023-10-09T00:38:58;10.40;76.90
4406;DHT22;2216;53.806;11.598;2023-10-09T00:41:30;10.40;76.90
4406;DHT22;2216;53.806;11.598;2023-10-09T00:44:00;10.40;76.90
4406;DHT22;2216;53.806;11.598;2023-10-09T00:46:27;10.40;76.90
4406;DHT22;2216;53.806;11.598;2023-10-09T00:48:57;10.40;76.90
4406;DHT22;2216;53.806;11.598;2023-10-09T00:51:29;10.40;76.90
4406;DHT22;2216;53.806;11.598;2023-10-09T00:54:02;10.40;76.90
4406;DHT22;2216;53.806;11.598;2023-10-09T00:56:32;10.40;76.90
4406;DHT22;2216;53.806;11.598;2023-10-09T00:59:05;10.40;76.90
4406;DHT22;2216;53.806;11.598;2023-10-09T01:01:37;10.40;76.90
4406;DHT22;2216;53.806;11.598;2023-10-09T01:04:10;10.40;76.80
4406;DHT22;2216;53.806;11.598;2023-10-09T01:06:41;10.40;76.70
4406;DHT22;2216;53.806;11.598;2023-10-09T01:09:14;10.40;76.70
4406;DHT22;2216;53.806;11.598;2023-10-09T01:11:42;10.40;76.70
4406;DHT22;2216;53.806;11.598;2023-10-09T01:14:31;10.40;76.70
4406;DHT22;2216;53.806;11.598;2023-10-09T01:17:02;10.40;76.60
4406;DHT22;2216;53.806;11.598;2023-10-09T01:19:35;10.30;76.60
4406;DHT22;2216;53.806;11.598;2023-10-09T01:22:01;10.30;76.50
4406;DHT22;2216;53.806;11.598;2023-10-09T01:24:37;10.30;76.50
4406;DHT22;2216;53.806;11.598;2023-10-09T01:27:04;10.30;76.40
4406;DHT22;2216;53.806;11.598;2023-10-09T01:29:36;10.20;76.40
4406;DHT22;2216;53.806;11.598;2023-10-09T01:32:02;10.30;76.50
4406;DHT22;2216;53.806;11.598;2023-10-09T01:34:32;10.20;76.50
4406;DHT22;2216;53.806;11.598;2023-10-09T01:37:10;10.20;76.50
4406;DHT22;2216;53.806;11.598;2023-10-09T01:39:46;10.10;76.50
4406;DHT22;2216;53.806;11.598;2023-10-09T01:42:14;10.10;76.50
4406;DHT22;2216;53.806;11.598;2023-10-09T01:44:51;10.10;76.50
4406;DHT22;2216;53.806;11.598;2023-10-09T01:47:17;10.00;76.60
4406;DHT22;2216;53.806;11.598;2023-10-09T01:49:44;10.00;76.60
4406;DHT22;2216;53.806;11.598;2023-10-09T01:52:15;10.00;76.70
4406;DHT22;2216;53.806;11.598;2023-10-09T01:54:42;10.00;76.60
4406;DHT22;2216;53.806;11.598;2023-10-09T01:57:17;10.00;76.60
4406;DHT22;2216;53.806;11.598;2023-10-09T01:59:55;10.00;76.60
4406;DHT22;2216;53.806;11.598;2023-10-09T02:02:24;10.00;76.70
4406;DHT22;2216;53.806;11.598;2023-10-09T02:05:02;10.00;76.70
4406;DHT22;2216;53.806;11.598;2023-10-09T02:07:38;10.00;76.60
4406;DHT22;2216;53.806;11.598;2023-10-09T02:10:14;10.00;76.60
4406;DHT22;2216;53.806;11.598;2023-10-09T02:13:02;10.00;76.60
4406;DHT22;2216;53.806;11.598;2023-10-09T02:15:34;10.00;76.60
4406;DHT22;2216;53.806;11.598;2023-10-09T02:18:20;9.90;76.50
4406;DHT22;2216;53.806;11.598;2023-10-09T02:23:31;9.90;76.60
4406;DHT22;2216;53.806;11.598;2023-10-09T02:26:10;9.90;76.60
4406;DHT22;2216;53.806;11.598;2023-10-09T02:28:43;9.90;76.60
4406;DHT22;2216;53.806;11.598;2023-10-09T02:31:11;9.90;76.70
4406;DHT22;2216;53.806;11.598;2023-10-09T02:33:37;9.80;76.70
4406;DHT22;2216;53.806;11.598;2023-10-09T02:36:05;9.80;76.90
4406;DHT22;2216;53.806;11.598;2023-10-09T02:38:32;9.90;76.90
4406;DHT22;2216;53.806;11.598;2023-10-09T02:41:01;9.90;76.90
4406;DHT22;2216;53.806;11.598;2023-10-09T02:43:32;9.80;76.80
4406;DHT22;2216;53.806;11.598;2023-10-09T02:46:13;9.80;76.80
4406;DHT22;2216;53.806;11.598;2023-10-09T02:48:43;9.80;77.50
4406;DHT22;2216;53.806;11.598;2023-10-09T02:51:19;9.80;76.80
4406;DHT22;2216;53.806;11.598;2023-10-09T02:53:52;9.80;76.90
4406;DHT22;2216;53.806;11.598;2023-10-09T02:56:18;9.80;76.90
4406;DHT22;2216;53.806;11.598;2023-10-09T02:58:52;9.80;76.90
4406;DHT22;2216;53.806;11.598;2023-10-09T03:01:19;9.80;76.80
4406;DHT22;2216;53.806;11.598;2023-10-09T03:03:45;9.80;76.80
4406;DHT22;2216;53.806;11.598;2023-10-09T03:06:12;9.80;76.90
4406;DHT22;2216;53.806;11.598;2023-10-09T03:08:39;9.80;76.90
4406;DHT22;2216;53.806;11.598;2023-10-09T03:11:07;9.80;76.90
4406;DHT22;2216;53.806;11.598;2023-10-09T03:13:41;9.90;77.60
4406;DHT22;2216;53.806;11.598;2023-10-09T03:16:11;9.90;76.90
4406;DHT22;2216;53.806;11.598;2023-10-09T03:18:46;9.80;76.90
4406;DHT22;2216;53.806;11.598;2023-10-09T03:21:13;9.80;76.90
4406;DHT22;2216;53.806;11.598;2023-10-09T03:23:40;9.90;76.90
4406;DHT22;2216;53.806;11.598;2023-10-09T03:26:06;9.90;77.00
4406;DHT22;2216;53.806;11.598;2023-10-09T03:28:33;9.90;77.00
4406;DHT22;2216;53.806;11.598;2023-10-09T03:30:59;9.90;76.90
4406;DHT22;2216;53.806;11.598;2023-10-09T03:33:28;9.90;76.90
4406;DHT22;2216;53.806;11.598;2023-10-09T03:35:59;9.90;77.00
4406;DHT22;2216;53.806;11.598;2023-10-09T03:38:26;9.90;76.90
4406;DHT22;2216;53.806;11.598;2023-10-09T03:40:54;9.90;77.00
4406;DHT22;2216;53.806;11.598;2023-10-09T03:43:20;9.90;76.90
4406;DHT22;2216;53.806;11.598;2023-10-09T03:45:47;9.90;76.90
4406;DHT22;2216;53.806;11.598;2023-10-09T03:48:19;10.00;76.90
4406;DHT22;2216;53.806;11.598;2023-10-09T03:50:51;9.90;76.80
4406;DHT22;2216;53.806;11.598;2023-10-09T03:53:38;9.90;76.80
4406;DHT22;2216;53.806;11.598;2023-10-09T03:56:08;9.90;76.80
4406;DHT22;2216;53.806;11.598;2023-10-09T03:58:40;9.90;76.80
4406;DHT22;2216;53.806;11.598;2023-10-09T04:01:15;9.90;76.90
4406;DHT22;2216;53.806;11.598;2023-10-09T04:03:50;9.90;76.90
4406;DHT22;2216;53.806;11.598;2023-10-09T04:06:30;9.90;77.00
4406;DHT22;2216;53.806;11.598;2023-10-09T04:09:01;9.90;77.00
4406;DHT22;2216;53.806;11.598;2023-10-09T04:11:44;9.90;77.00
4406;DHT22;2216;53.806;11.598;2023-10-09T04:14:15;9.90;77.00
4406;DHT22;2216;53.806;11.598;2023-10-09T04:16:52;9.90;77.00
4406;DHT22;2216;53.806;11.598;2023-10-09T04:19:21;9.90;77.00
4406;DHT22;2216;53.806;11.598;2023-10-09T04:21:50;9.90;77.00
4406;DHT22;2216;53.806;11.598;2023-10-09T04:24:21;9.90;77.10
4406;DHT22;2216;53.806;11.598;2023-10-09T04:26:46;9.90;77.10
4406;DHT22;2216;53.806;11.598;2023-10-09T04:29:16;9.90;77.10
4406;DHT22;2216;53.806;11.598;2023-10-09T04:31:55;9.90;77.10
4406;DHT22;2216;53.806;11.598;2023-10-09T04:34:25;9.90;77.10
4406;DHT22;2216;53.806;11.598;2023-10-09T04:37:00;9.90;77.10
4406;DHT22;2216;53.806;11.598;2023-10-09T04:39:29;9.90;77.10
4406;DHT22;2216;53.806;11.598;2023-10-09T04:41:56;9.90;77.10
4406;DHT22;2216;53.806;11.598;2023-10-09T04:44:43;9.80;77.20
4406;DHT22;2216;53.806;11.598;2023-10-09T04:47:28;9.80;77.10
4406;DHT22;2216;53.806;11.598;2023-10-09T04:50:10;10.00;77.20
4406;DHT22;2216;53.806;11.598;2023-10-09T04:52:37;9.80;77.10
4406;DHT22;2216;53.806;11.598;2023-10-09T04:55:04;9.80;77.00
4406;DHT22;2216;53.806;11.598;2023-10-09T04:57:37;9.80;77.00
4406;DHT22;2216;53.806;11.598;2023-10-09T05:00:16;9.80;77.00
4406;DHT22;2216;53.806;11.598;2023-10-09T05:02:51;9.70;76.90
4406;DHT22;2216;53.806;11.598;2023-10-09T05:05:30;9.70;76.90
4406;DHT22;2216;53.806;11.598;2023-10-09T05:08:15;9.70;76.90
4406;DHT22;2216;53.806;11.598;2023-10-09T05:11:03;9.70;76.90
4406;DHT22;2216;53.806;11.598;2023-10-09T05:13:34;9.70;76.90
4406;DHT22;2216;53.806;11.598;2023-10-09T05:16:08;9.70;76.90
4406;DHT22;2216;53.806;11.598;2023-10-09T05:18:41;9.60;76.90
4406;DHT22;2216;53.806;11.598;2023-10-09T05:21:10;9.60;77.10
4406;DHT22;2216;53.806;11.598;2023-10-09T05:23:55;9.60;77.00
4406;DHT22;2216;53.806;11.598;2023-10-09T05:26:49;9.60;77.00
4406;DHT22;2216;53.806;11.598;2023-10-09T05:29:25;9.60;77.00
4406;DHT22;2216;53.806;11.598;2023-10-09T05:31:57;9.60;77.10
4406;DHT22;2216;53.806;11.598;2023-10-09T05:34:39;9.60;77.00
4406;DHT22;2216;53.806;11.598;2023-10-09T05:37:28;9.50;77.00
4406;DHT22;2216;53.806;11.598;2023-10-09T05:40:00;9.50;77.10
4406;DHT22;2216;53.806;11.598;2023-10-09T05:42:42;9.50;77.10
4406;DHT22;2216;53.806;11.598;2023-10-09T05:45:12;9.50;77.10
4406;DHT22;2216;53.806;11.598;2023-10-09T05:48:00;9.50;77.10
4406;DHT22;2216;53.806;11.598;2023-10-09T05:50:32;9.50;77.20
4406;DHT22;2216;53.806;11.598;2023-10-09T05:53:04;9.50;77.20
4406;DHT22;2216;53.806;11.598;2023-10-09T05:55:55;9.50;78.00
4406;DHT22;2216;53.806;11.598;2023-10-09T05:58:40;9.50;77.30
4406;DHT22;2216;53.806;11.598;2023-10-09T06:01:24;9.50;77.30
4406;DHT22;2216;53.806;11.598;2023-10-09T06:04:22;9.50;77.30
4406;DHT22;2216;53.806;11.598;2023-10-09T06:07:01;9.60;77.40
4406;DHT22;2216;53.806;11.598;2023-10-09T06:09:37;9.50;77.40
4406;DHT22;2216;53.806;11.598;2023-10-09T06:12:34;9.50;77.30
4406;DHT22;2216;53.806;11.598;2023-10-09T06:15:09;9.50;77.40
4406;DHT22;2216;53.806;11.598;2023-10-09T06:17:54;9.50;77.40
4406;DHT22;2216;53.806;11.598;2023-10-09T06:20:25;9.60;77.50
4406;DHT22;2216;53.806;11.598;2023-10-09T06:23:25;9.60;77.50
4406;DHT22;2216;53.806;11.598;2023-10-09T06:26:11;9.60;77.70
4406;DHT22;2216;53.806;11.598;2023-10-09T06:28:49;9.60;77.60
4406;DHT22;2216;53.806;11.598;2023-10-09T06:31:35;9.60;77.60
4406;DHT22;2216;53.806;11.598;2023-10-09T06:34:20;9.60;77.60
4406;DHT22;2216;53.806;11.598;2023-10-09T06:36:57;9.70;78.50
4406;DHT22;2216;53.806;11.598;2023-10-09T06:39:30;9.60;77.60
4406;DHT22;2216;53.806;11.598;2023-10-09T06:42:14;9.80;77.70
4406;DHT22;2216;53.806;11.598;2023-10-09T06:45:06;9.70;77.70
4406;DHT22;2216;53.806;11.598;2023-10-09T06:47:35;9.70;77.80
4406;DHT22;2216;53.806;11.598;2023-10-09T06:50:11;9.70;77.90
4406;DHT22;2216;53.806;11.598;2023-10-09T06:52:57;9.80;78.00
4406;DHT22;2216;53.806;11.598;2023-10-09T06:55:25;9.80;78.00
4406;DHT22;2216;53.806;11.598;2023-10-09T06:58:00;9.80;78.00
4406;DHT22;2216;53.806;11.598;2023-10-09T07:00:42;9.80;78.00
4406;DHT22;2216;53.806;11.598;2023-10-09T07:03:20;9.90;78.10
4406;DHT22;2216;53.806;11.598;2023-10-09T07:06:06;9.90;78.20
4406;DHT22;2216;53.806;11.598;2023-10-09T07:08:56;10.00;78.40
4406;DHT22;2216;53.806;11.598;2023-10-09T07:14:03;10.10;78.40
4406;DHT22;2216;53.806;11.598;2023-10-09T07:16:32;10.10;78.30
4406;DHT22;2216;53.806;11.598;2023-10-09T07:19:06;10.10;78.40
4406;DHT22;2216;53.806;11.598;2023-10-09T07:21:36;10.20;78.40
4406;DHT22;2216;53.806;11.598;2023-10-09T07:24:07;10.20;78.30
4406;DHT22;2216;53.806;11.598;2023-10-09T07:26:42;10.30;78.40
4406;DHT22;2216;53.806;11.598;2023-10-09T07:29:19;10.40;78.60
4406;DHT22;2216;53.806;11.598;2023-10-09T07:31:49;10.40;79.30
4406;DHT22;2216;53.806;11.598;2023-10-09T07:34:23;10.40;78.60
4406;DHT22;2216;53.806;11.598;2023-10-09T07:37:08;10.50;78.60
4406;DHT22;2216;53.806;11.598;2023-10-09T07:39:34;10.50;78.60
4406;DHT22;2216;53.806;11.598;2023-10-09T07:42:04;10.50;78.70
4406;DHT22;2216;53.806;11.598;2023-10-09T07:44:52;10.60;78.70
4406;DHT22;2216;53.806;11.598;2023-10-09T07:47:22;10.70;79.00
4406;DHT22;2216;53.806;11.598;2023-10-09T07:49:58;10.70;79.00
4406;DHT22;2216;53.806;11.598;2023-10-09T07:52:24;10.80;79.00
4406;DHT22;2216;53.806;11.598;2023-10-09T07:54:51;10.90;79.00
4406;DHT22;2216;53.806;11.598;2023-10-09T07:57:20;10.90;79.00
4406;DHT22;2216;53.806;11.598;2023-10-09T07:59:51;11.00;79.00
4406;DHT22;2216;53.806;11.598;2023-10-09T08:02:25;11.00;79.00
4406;DHT22;2216;53.806;11.598;2023-10-09T08:05:01;11.10;79.00
4406;DHT22;2216;53.806;11.598;2023-10-09T08:07:32;11.10;78.90
4406;DHT22;2216;53.806;11.598;2023-10-09T08:10:07;11.20;78.90
4406;DHT22;2216;53.806;11.598;2023-10-09T08:12:40;11.20;78.90
4406;DHT22;2216;53.806;11.598;2023-10-09T08:15:16;11.30;78.80
4406;DHT22;2216;53.806;11.598;2023-10-09T08:20:29;11.40;78.90
4406;DHT22;2216;53.806;11.598;2023-10-09T08:23:21;11.40;79.50
4406;DHT22;2216;53.806;11.598;2023-10-09T08:26:14;11.50;78.80
4406;DHT22;2216;53.806;11.598;2023-10-09T08:28:42;11.50;78.80
4406;DHT22;2216;53.806;11.598;2023-10-09T08:31:13;11.50;78.80
4406;DHT22;2216;53.806;11.598;2023-10-09T08:33:59;11.60;78.90
4406;DHT22;2216;53.806;11.598;2023-10-09T08:36:25;11.60;78.70
4406;DHT22;2216;53.806;11.598;2023-10-09T08:38:57;11.60;78.70
4406;DHT22;2216;53.806;11.598;2023-10-09T08:41:25;11.70;78.80
4406;DHT22;2216;53.806;11.598;2023-10-09T08:43:56;11.70;78.80
4406;DHT22;2216;53.806;11.598;2023-10-09T08:46:27;11.80;78.80
4406;DHT22;2216;53.806;11.598;2023-10-09T08:48:55;11.80;78.70
4406;DHT22;2216;53.806;11.598;2023-10-09T08:51:24;11.80;78.60
4406;DHT22;2216;53.806;11.598;2023-10-09T08:53:51;11.90;78.70
4406;DHT22;2216;53.806;11.598;2023-10-09T08:56:19;11.90;78.60
4406;DHT22;2216;53.806;11.598;2023-10-09T09:01:18;11.90;78.70
4406;DHT22;2216;53.806;11.598;2023-10-09T09:03:48;12.00;78.70
4406;DHT22;2216;53.806;11.598;2023-10-09T09:06:15;12.00;78.70
4406;DHT22;2216;53.806;11.598;2023-10-09T09:08:45;12.00;78.70
4406;DHT22;2216;53.806;11.598;2023-10-09T09:11:16;12.10;78.90
4406;DHT22;2216;53.806;11.598;2023-10-09T09:13:48;12.10;78.80
4406;DHT22;2216;53.806;11.598;2023-10-09T09:16:25;12.20;78.70
4406;DHT22;2216;53.806;11.598;2023-10-09T09:18:59;12.20;78.60
4406;DHT22;2216;53.806;11.598;2023-10-09T09:21:29;12.20;78.60
4406;DHT22;2216;53.806;11.598;2023-10-09T09:24:02;12.20;78.60
4406;DHT22;2216;53.806;11.598;2023-10-09T09:26:36;12.30;78.60
4406;DHT22;2216;53.806;11.598;2023-10-09T09:29:04;12.30;78.60
4406;DHT22;2216;53.806;11.598;2023-10-09T09:31:31;12.30;78.60
4406;DHT22;2216;53.806;11.598;2023-10-09T09:34:07;12.30;78.60
4406;DHT22;2216;53.806;11.598;2023-10-09T09:36:53;12.30;78.60
4406;DHT22;2216;53.806;11.598;2023-10-09T09:39:25;12.30;78.60
4406;DHT22;2216;53.806;11.598;2023-10-09T09:41:59;12.30;78.60
4406;DHT22;2216;53.806;11.598;2023-10-09T09:44:44;12.30;78.60
4406;DHT22;2216;53.806;11.598;2023-10-09T09:47:15;12.30;78.50
4406;DHT22;2216;53.806;11.598;2023-10-09T09:49:50;12.30;78.50
4406;DHT22;2216;53.806;11.598;2023-10-09T09:52:18;12.40;78.60
4406;DHT22;2216;53.806;11.598;2023-10-09T09:54:44;12.40;78.70
4406;DHT22;2216;53.806;11.598;2023-10-09T09:57:13;12.40;78.80
4406;DHT22;2216;53.806;11.598;2023-10-09T09:59:41;12.40;78.70
4406;DHT22;2216;53.806;11.598;2023-10-09T10:02:20;12.50;78.90
4406;DHT22;2216;53.806;11.598;2023-10-09T10:04:54;12.50;78.90
4406;DHT22;2216;53.806;11.598;2023-10-09T10:07:23;12.50;78.90
4406;DHT22;2216;53.806;11.598;2023-10-09T10:09:50;12.50;78.80
4406;DHT22;2216;53.806;11.598;2023-10-09T10:15:13;12.60;78.80
4406;DHT22;2216;53.806;11.598;2023-10-09T10:20:26;12.60;78.60
4406;DHT22;2216;53.806;11.598;2023-10-09T10:23:20;12.60;78.60
4406;DHT22;2216;53.806;11.598;2023-10-09T10:25:51;12.70;78.60
4406;DHT22;2216;53.806;11.598;2023-10-09T10:28:26;12.60;78.40
4406;DHT22;2216;53.806;11.598;2023-10-09T10:31:08;12.60;78.60
4406;DHT22;2216;53.806;11.598;2023-10-09T10:36:21;12.60;78.60
4406;DHT22;2216;53.806;11.598;2023-10-09T10:39:05;12.60;78.60
4406;DHT22;2216;53.806;11.598;2023-10-09T10:41:56;12.60;78.50
4406;DHT22;2216;53.806;11.598;2023-10-09T10:44:31;12.60;78.40
4406;DHT22;2216;53.806;11.598;2023-10-09T10:47:10;12.60;79.20
4406;DHT22;2216;53.806;11.598;2023-10-09T10:49:49;12.70;78.60
4406;DHT22;2216;53.806;11.598;2023-10-09T10:52:22;12.70;78.80
4406;DHT22;2216;53.806;11.598;2023-10-09T10:55:13;12.70;78.80
4406;DHT22;2216;53.806;11.598;2023-10-09T10:58:17;12.70;78.90
4406;DHT22;2216;53.806;11.598;2023-10-09T11:00:54;12.70;78.90
4406;DHT22;2216;53.806;11.598;2023-10-09T11:03:24;12.80;78.80
4406;DHT22;2216;53.806;11.598;2023-10-09T11:06:02;12.80;78.90
4406;DHT22;2216;53.806;11.598;2023-10-09T11:08:43;12.80;79.00
4406;DHT22;2216;53.806;11.598;2023-10-09T11:11:20;12.80;78.90
4406;DHT22;2216;53.806;11.598;2023-10-09T11:13:46;12.90;78.90
4406;DHT22;2216;53.806;11.598;2023-10-09T11:16:20;12.90;78.90
4406;DHT22;2216;53.806;11.598;2023-10-09T11:19:11;12.90;78.90
4406;DHT22;2216;53.806;11.598;2023-10-09T11:21:53;12.90;78.70
4406;DHT22;2216;53.806;11.598;2023-10-09T11:24:33;12.90;78.60
4406;DHT22;2216;53.806;11.598;2023-10-09T11:27:01;12.90;78.50
4406;DHT22;2216;53.806;11.598;2023-10-09T11:29:35;12.90;78.50
4406;DHT22;2216;53.806;11.598;2023-10-09T11:32:19;12.90;78.50
4406;DHT22;2216;53.806;11.598;2023-10-09T11:34:50;12.90;78.50
4406;DHT22;2216;53.806;11.598;2023-10-09T11:37:22;12.90;78.50
4406;DHT22;2216;53.806;11.598;2023-10-09T11:39:54;12.90;78.50
4406;DHT22;2216;53.806;11.598;2023-10-09T11:42:22;12.90;78.50
4406;DHT22;2216;53.806;11.598;2023-10-09T11:45:25;13.00;78.60
4406;DHT22;2216;53.806;11.598;2023-10-09T11:47:56;13.00;78.60
4406;DHT22;2216;53.806;11.598;2023-10-09T11:50:39;13.00;78.60
4406;DHT22;2216;53.806;11.598;2023-10-09T11:53:09;13.00;78.60
4406;DHT22;2216;53.806;11.598;2023-10-09T11:55:46;13.00;78.60
4406;DHT22;2216;53.806;11.598;2023-10-09T11:58:17;13.00;78.60
4406;DHT22;2216;53.806;11.598;2023-10-09T12:00:57;13.10;78.80
4406;DHT22;2216;53.806;11.598;2023-10-09T12:03:30;13.00;78.70
4406;DHT22;2216;53.806;11.598;2023-10-09T12:05:57;13.10;78.70
4406;DHT22;2216;53.806;11.598;2023-10-09T12:08:29;13.10;78.70
4406;DHT22;2216;53.806;11.598;2023-10-09T12:10:55;13.10;78.70
4406;DHT22;2216;53.806;11.598;2023-10-09T12:13:24;13.20;78.80
4406;DHT22;2216;53.806;11.598;2023-10-09T12:15:51;13.20;78.80
4406;DHT22;2216;53.806;11.598;2023-10-09T12:18:18;13.00;78.60
4406;DHT22;2216;53.806;11.598;2023-10-09T12:20:45;13.30;78.80
4406;DHT22;2216;53.806;11.598;2023-10-09T12:23:20;13.30;78.80
4406;DHT22;2216;53.806;11.598;2023-10-09T12:25:50;13.30;78.70
4406;DHT22;2216;53.806;11.598;2023-10-09T12:28:17;13.30;78.70
4406;DHT22;2216;53.806;11.598;2023-10-09T12:30:46;13.30;78.60
4406;DHT22;2216;53.806;11.598;2023-10-09T12:33:16;13.30;78.60
4406;DHT22;2216;53.806;11.598;2023-10-09T12:35:44;13.30;78.60
4406;DHT22;2216;53.806;11.598;2023-10-09T12:38:13;13.30;78.80
4406;DHT22;2216;53.806;11.598;2023-10-09T12:40:44;13.40;78.70
4406;DHT22;2216;53.806;11.598;2023-10-09T12:43:17;13.40;78.70
4406;DHT22;2216;53.806;11.598;2023-10-09T12:45:48;13.40;78.70
4406;DHT22;2216;53.806;11.598;2023-10-09T12:48:13;13.40;78.70
4406;DHT22;2216;53.806;11.598;2023-10-09T12:50:40;13.40;78.80
4406;DHT22;2216;53.806;11.598;2023-10-09T12:53:10;13.50;79.60
4406;DHT22;2216;53.806;11.598;2023-10-09T12:55:37;13.50;78.90
4406;DHT22;2216;53.806;11.598;2023-10-09T12:58:09;13.60;79.00
4406;DHT22;2216;53.806;11.598;2023-10-09T13:00:40;13.60;79.00
4406;DHT22;2216;53.806;11.598;2023-10-09T13:03:11;13.60;79.00
4406;DHT22;2216;53.806;11.598;2023-10-09T13:05:50;13.70;79.00
4406;DHT22;2216;53.806;11.598;2023-10-09T13:08:29;13.70;78.90
4406;DHT22;2216;53.806;11.598;2023-10-09T13:11:08;13.70;78.90
4406;DHT22;2216;53.806;11.598;2023-10-09T13:13:41;13.80;78.90
4406;DHT22;2216;53.806;11.598;2023-10-09T13:16:24;13.80;78.80
4406;DHT22;2216;53.806;11.598;2023-10-09T13:18:56;13.80;78.80
4406;DHT22;2216;53.806;11.598;2023-10-09T13:21:25;13.80;78.60
4406;DHT22;2216;53.806;11.598;2023-10-09T13:23:52;13.80;78.60
4406;DHT22;2216;53.806;11.598;2023-10-09T13:26:21;13.80;78.50
4406;DHT22;2216;53.806;11.598;2023-10-09T13:28:55;13.80;78.40
4406;DHT22;2216;53.806;11.598;2023-10-09T13:31:22;13.80;78.30
4406;DHT22;2216;53.806;11.598;2023-10-09T13:33:55;13.80;78.40
4406;DHT22;2216;53.806;11.598;2023-10-09T13:36:22;13.80;78.30
4406;DHT22;2216;53.806;11.598;2023-10-09T13:39:02;13.80;78.30
4406;DHT22;2216;53.806;11.598;2023-10-09T13:41:48;13.80;78.40
4406;DHT22;2216;53.806;11.598;2023-10-09T13:44:15;13.80;78.50
4406;DHT22;2216;53.806;11.598;2023-10-09T13:46:41;13.80;78.50
4406;DHT22;2216;53.806;11.598;2023-10-09T13:49:08;13.80;78.50
4406;DHT22;2216;53.806;11.598;2023-10-09T13:51:38;13.80;78.60
4406;DHT22;2216;53.806;11.598;2023-10-09T13:54:10;13.80;78.50
4406;DHT22;2216;53.806;11.598;2023-10-09T13:56:43;13.70;78.40
4406;DHT22;2216;53.806;11.598;2023-10-09T13:59:09;13.70;78.30
4406;DHT22;2216;53.806;11.598;2023-10-09T14:01:37;13.70;78.30
4406;DHT22;2216;53.806;11.598;2023-10-09T14:04:05;13.70;78.30
4406;DHT22;2216;53.806;11.598;2023-10-09T14:06:33;13.70;78.40
4406;DHT22;2216;53.806;11.598;2023-10-09T14:09:00;13.60;78.20
4406;DHT22;2216;53.806;11.598;2023-10-09T14:11:34;13.60;78.20
4406;DHT22;2216;53.806;11.598;2023-10-09T14:14:09;13.60;78.20
4406;DHT22;2216;53.806;11.598;2023-10-09T14:16:37;13.60;78.20
4406;DHT22;2216;53.806;11.598;2023-10-09T14:19:02;13.60;78.20
4406;DHT22;2216;53.806;11.598;2023-10-09T14:21:33;13.60;78.20
4406;DHT22;2216;53.806;11.598;2023-10-09T14:24:04;13.50;78.10
4406;DHT22;2216;53.806;11.598;2023-10-09T14:26:41;13.50;78.20
4406;DHT22;2216;53.806;11.598;2023-10-09T14:29:07;13.50;78.10
4406;DHT22;2216;53.806;11.598;2023-10-09T14:31:33;13.50;78.10
4406;DHT22;2216;53.806;11.598;2023-10-09T14:34:04;13.40;78.00
4406;DHT22;2216;53.806;11.598;2023-10-09T14:36:30;13.50;78.10
4406;DHT22;2216;53.806;11.598;2023-10-09T14:39:00;13.40;78.00
4406;DHT22;2216;53.806;11.598;2023-10-09T14:41:27;13.40;78.00
4406;DHT22;2216;53.806;11.598;2023-10-09T14:43:54;13.30;77.90
4406;DHT22;2216;53.806;11.598;2023-10-09T14:46:20;13.30;78.00
4406;DHT22;2216;53.806;11.598;2023-10-09T14:48:51;13.30;78.00
4406;DHT22;2216;53.806;11.598;2023-10-09T14:51:21;13.30;77.90
4406;DHT22;2216;53.806;11.598;2023-10-09T14:53:53;13.30;78.00
4406;DHT22;2216;53.806;11.598;2023-10-09T14:56:23;13.20;78.00
4406;DHT22;2216;53.806;11.598;2023-10-09T14:58:56;13.20;78.10
4406;DHT22;2216;53.806;11.598;2023-10-09T15:01:24;13.30;78.10
4406;DHT22;2216;53.806;11.598;2023-10-09T15:03:58;13.20;78.10
4406;DHT22;2216;53.806;11.598;2023-10-09T15:06:26;13.20;78.10
4406;DHT22;2216;53.806;11.598;2023-10-09T15:08:54;13.20;78.10
4406;DHT22;2216;53.806;11.598;2023-10-09T15:11:27;13.20;78.10
4406;DHT22;2216;53.806;11.598;2023-10-09T15:13:55;13.30;78.10
4406;DHT22;2216;53.806;11.598;2023-10-09T15:16:22;13.20;78.10
4406;DHT22;2216;53.806;11.598;2023-10-09T15:18:54;13.10;78.00
4406;DHT22;2216;53.806;11.598;2023-10-09T15:21:22;13.10;78.00
4406;DHT22;2216;53.806;11.598;2023-10-09T15:23:54;13.10;78.00
4406;DHT22;2216;53.806;11.598;2023-10-09T15:26:21;13.10;78.00
4406;DHT22;2216;53.806;11.598;2023-10-09T15:28:49;13.10;78.00
4406;DHT22;2216;53.806;11.598;2023-10-09T15:31:18;13.00;78.00
4406;DHT22;2216;53.806;11.598;2023-10-09T15:33:46;13.00;77.90
4406;DHT22;2216;53.806;11.598;2023-10-09T15:36:16;13.00;77.90
4406;DHT22;2216;53.806;11.598;2023-10-09T15:38:43;13.00;77.90
4406;DHT22;2216;53.806;11.598;2023-10-09T15:41:09;12.90;77.80
4406;DHT22;2216;53.806;11.598;2023-10-09T15:43:35;12.90;78.60
4406;DHT22;2216;53.806;11.598;2023-10-09T15:46:01;12.90;77.90
4406;DHT22;2216;53.806;11.598;2023-10-09T15:48:27;12.90;77.90
4406;DHT22;2216;53.806;11.598;2023-10-09T15:50:53;12.90;77.90
4406;DHT22;2216;53.806;11.598;2023-10-09T15:53:19;12.90;77.90
4406;DHT22;2216;53.806;11.598;2023-10-09T15:55:45;12.80;77.90
4406;DHT22;2216;53.806;11.598;2023-10-09T15:58:12;12.80;77.90
4406;DHT22;2216;53.806;11.598;2023-10-09T16:00:38;12.80;77.90
4406;DHT22;2216;53.806;11.598;2023-10-09T16:03:04;12.70;77.90
4406;DHT22;2216;53.806;11.598;2023-10-09T16:05:33;12.70;77.90
4406;DHT22;2216;53.806;11.598;2023-10-09T16:08:01;12.70;78.00
4406;DHT22;2216;53.806;11.598;2023-10-09T16:10:29;12.70;78.00
4406;DHT22;2216;53.806;11.598;2023-10-09T16:12:56;12.70;78.10
4406;DHT22;2216;53.806;11.598;2023-10-09T16:15:23;12.70;78.20
4406;DHT22;2216;53.806;11.598;2023-10-09T16:17:50;12.60;78.10
4406;DHT22;2216;53.806;11.598;2023-10-09T16:20:29;12.70;78.20
4406;DHT22;2216;53.806;11.598;2023-10-09T16:22:57;12.60;78.10
4406;DHT22;2216;53.806;11.598;2023-10-09T16:25:32;12.60;78.90
4406;DHT22;2216;53.806;11.598;2023-10-09T16:28:02;12.60;78.10
4406;DHT22;2216;53.806;11.598;2023-10-09T16:30:28;12.50;78.10
4406;DHT22;2216;53.806;11.598;2023-10-09T16:32:54;12.60;78.20
4406;DHT22;2216;53.806;11.598;2023-10-09T16:35:19;12.50;78.10
4406;DHT22;2216;53.806;11.598;2023-10-09T16:37:49;12.50;78.10
4406;DHT22;2216;53.806;11.598;2023-10-09T16:40:15;12.50;78.10
4406;DHT22;2216;53.806;11.598;2023-10-09T16:42:46;12.50;78.10
4406;DHT22;2216;53.806;11.598;2023-10-09T16:45:14;12.50;78.10